Time;durP1;ratioP1;P1;durP2;ratioP2;P2;SDS_P1;SDS_P2;PMS_P1;PMS_P2;Temp;Humidity;BMP_temperature;BMP_pressure;BME280_temperature;BME280_humidity;BME280_pressure;Samples;Min_cycle;Max_cycle;Signal;HPM_P1;HPM_P2
2023/12/18 00:01:03;;;;;;;;;;;0.70;99.90;;;;;;4998569;28;20021;-79
2023/12/18 00:03:29;;;;;;;;;;;0.80;99.90;;;;;;4997340;28;19910;-80
2023/12/18 00:05:55;;;;;;;;;;;0.60;99.90;;;;;;5009553;28;19928;-78
2023/12/18 00:08:20;;;;;;;;;;;0.50;99.90;;;;;;4993003;28;19921;-77
2023/12/18 00:10:46;;;;;;;;;;;0.50;99.90;;;;;;4994578;28;19910;-78
2023/12/18 00:13:11;;;;;;;;;;;0.30;99.90;;;;;;4992743;28;19909;-78
2023/12/18 00:15:37;;;;;;;;;;;0.40;99.90;;;;;;4992689;28;19916;-77
2023/12/18 00:18:03;;;;;;;;;;;0.40;99.90;;;;;;4991555;28;19909;-77
2023/12/18 00:20:28;;;;;;;;;;;0.40;99.90;;;;;;4991719;28;19917;-78
2023/12/18 00:22:54;;;;;;;;;;;0.50;99.90;;;;;;4992532;28;19913;-77
2023/12/18 00:25:19;;;;;;;;;;;0.50;99.90;;;;;;4992056;28;19917;-77
2023/12/18 00:27:44;;;;;;;;;;;0.50;99.90;;;;;;4991181;28;19916;-78
2023/12/18 00:30:10;;;;;;;;;;;0.40;99.90;;;;;;4992604;28;19972;-77
2023/12/18 00:32:36;;;;;;;;;;;0.40;99.90;;;;;;4993418;28;19912;-78
2023/12/18 00:35:01;;;;;;;;;;;0.30;99.90;;;;;;4994573;28;20044;-78
2023/12/18 00:37:27;;;;;;;;;;;0.30;99.90;;;;;;4994274;28;20302;-78
2023/12/18 00:39:52;;;;;;;;;;;0.20;99.90;;;;;;4992128;28;19917;-79
2023/12/18 00:42:18;;;;;;;;;;;0.20;99.90;;;;;;4992527;28;19909;-77
2023/12/18 00:44:43;;;;;;;;;;;0.20;99.90;;;;;;4995585;28;20004;-78
2023/12/18 00:47:09;;;;;;;;;;;0.20;99.90;;;;;;4994896;28;19916;-79
2023/12/18 00:49:34;;;;;;;;;;;0.20;99.90;;;;;;4994286;28;19918;-77
2023/12/18 00:52:00;;;;;;;;;;;0.10;99.90;;;;;;4993466;28;19921;-78
2023/12/18 00:54:26;;;;;;;;;;;0.20;99.90;;;;;;4994310;28;19963;-77
2023/12/18 00:56:51;;;;;;;;;;;0.20;99.90;;;;;;4991849;28;20732;-78
2023/12/18 00:59:17;;;;;;;;;;;0.20;99.90;;;;;;4998027;28;19939;-79
2023/12/18 01:01:43;;;;;;;;;;;0.20;99.90;;;;;;5002485;28;19906;-79
2023/12/18 01:04:08;;;;;;;;;;;0.10;99.90;;;;;;5000135;28;20398;-78
2023/12/18 01:06:34;;;;;;;;;;;0.10;99.90;;;;;;4998988;28;20314;-78
2023/12/18 01:09:00;;;;;;;;;;;0.00;99.90;;;;;;4998908;28;19921;-79
2023/12/18 01:11:25;;;;;;;;;;;-0.10;99.90;;;;;;4997967;28;19906;-79
2023/12/18 01:13:51;;;;;;;;;;;-0.10;99.90;;;;;;4999505;28;19909;-78
2023/12/18 01:16:17;;;;;;;;;;;-0.10;99.90;;;;;;4997566;28;19913;-79
2023/12/18 01:18:42;;;;;;;;;;;-0.10;99.90;;;;;;4998829;28;19906;-79
2023/12/18 01:21:08;;;;;;;;;;;-0.10;99.90;;;;;;4997526;28;19905;-79
2023/12/18 01:23:33;;;;;;;;;;;-0.30;99.90;;;;;;4997925;28;19912;-79
2023/12/18 01:25:59;;;;;;;;;;;-0.30;99.90;;;;;;4998020;28;19906;-78
2023/12/18 01:28:24;;;;;;;;;;;-0.20;99.90;;;;;;4996448;28;19918;-78
2023/12/18 01:30:50;;;;;;;;;;;-0.20;99.90;;;;;;4995672;28;19913;-79
2023/12/18 01:33:15;;;;;;;;;;;-0.20;99.90;;;;;;4996794;28;19906;-77
2023/12/18 01:35:41;;;;;;;;;;;-0.30;99.90;;;;;;4996051;28;20664;-79
2023/12/18 01:38:08;;;;;;;;;;;-0.20;99.90;;;;;;4997879;28;20530;-79
2023/12/18 01:40:35;;;;;;;;;;;-0.20;99.90;;;;;;5001698;28;19905;-79
2023/12/18 01:43:00;;;;;;;;;;;-0.20;99.90;;;;;;5000406;28;19917;-79
2023/12/18 01:45:26;;;;;;;;;;;-0.30;99.90;;;;;;4998599;28;20326;-79
2023/12/18 01:47:51;;;;;;;;;;;-0.30;99.90;;;;;;4998775;28;20012;-78
2023/12/18 01:50:17;;;;;;;;;;;-0.40;99.90;;;;;;5000389;28;19910;-79
2023/12/18 01:52:43;;;;;;;;;;;-0.60;99.90;;;;;;5004633;28;19989;-79
2023/12/18 01:55:10;;;;;;;;;;;-0.60;99.90;;;;;;5003528;28;20539;-79
2023/12/18 01:57:36;;;;;;;;;;;-0.60;99.90;;;;;;5004950;28;19906;-79
2023/12/18 02:00:02;;;;;;;;;;;-0.60;99.90;;;;;;5003297;28;19916;-78
2023/12/18 02:02:27;;;;;;;;;;;-0.60;99.90;;;;;;5000744;28;19941;-78
2023/12/18 02:04:53;;;;;;;;;;;-0.60;99.90;;;;;;5000986;28;19932;-78
2023/12/18 02:07:19;;;;;;;;;;;-0.70;99.90;;;;;;5011502;28;19910;-80
2023/12/18 02:09:44;;;;;;;;;;;-0.70;99.90;;;;;;5017557;28;19921;-79
2023/12/18 02:12:10;;;;;;;;;;;-0.60;99.90;;;;;;5016977;28;19909;-79
2023/12/18 02:14:35;;;;;;;;;;;-0.60;99.90;;;;;;5013611;28;19985;-79
2023/12/18 02:17:01;;;;;;;;;;;-0.70;99.90;;;;;;5009408;28;19913;-78
2023/12/18 02:19:28;;;;;;;;;;;-0.60;99.90;;;;;;5010839;28;19905;-78
2023/12/18 02:21:54;;;;;;;;;;;-0.60;99.90;;;;;;5010807;28;19909;-80
2023/12/18 02:24:20;;;;;;;;;;;-0.60;99.90;;;;;;5011076;28;19965;-79
2023/12/18 02:26:46;;;;;;;;;;;-0.60;99.90;;;;;;5012618;28;19936;-79
2023/12/18 02:29:12;;;;;;;;;;;-0.70;99.90;;;;;;5011471;28;19921;-80
2023/12/18 02:31:37;;;;;;;;;;;-0.80;99.90;;;;;;5009626;28;19937;-79
2023/12/18 02:34:03;;;;;;;;;;;-0.70;99.90;;;;;;5011468;28;20269;-79
2023/12/18 02:36:28;;;;;;;;;;;-0.80;99.90;;;;;;5010638;28;19912;-79
2023/12/18 02:38:54;;;;;;;;;;;-0.80;99.90;;;;;;5005513;28;19961;-79
2023/12/18 02:41:20;;;;;;;;;;;-0.70;99.90;;;;;;5011714;28;20302;-78
2023/12/18 02:43:45;;;;;;;;;;;-0.70;99.90;;;;;;5011221;28;19972;-79
2023/12/18 02:46:11;;;;;;;;;;;-0.70;99.90;;;;;;5010615;28;20427;-78
2023/12/18 02:48:36;;;;;;;;;;;-0.70;99.90;;;;;;4993818;28;19918;-77
2023/12/18 02:51:02;;;;;;;;;;;-0.70;99.90;;;;;;4995009;28;19928;-77
2023/12/18 02:53:28;;;;;;;;;;;-0.70;99.90;;;;;;4995210;28;20004;-77
2023/12/18 02:55:53;;;;;;;;;;;-0.70;99.90;;;;;;4994149;28;19949;-77
2023/12/18 02:58:21;;;;;;;;;;;-0.60;99.90;;;;;;4995156;28;19959;-78
2023/12/18 03:00:47;;;;;;;;;;;-0.60;99.90;;;;;;4994912;28;20306;-78
2023/12/18 03:03:13;;;;;;;;;;;-0.70;99.90;;;;;;4997980;28;19905;-79
2023/12/18 03:05:38;;;;;;;;;;;-0.70;99.90;;;;;;5002286;28;19929;-79
2023/12/18 03:08:04;;;;;;;;;;;-0.70;99.90;;;;;;5004028;28;19937;-80
2023/12/18 03:10:30;;;;;;;;;;;-0.90;99.90;;;;;;4992370;28;19909;-79
2023/12/18 03:12:55;;;;;;;;;;;-1.00;99.90;;;;;;4997437;28;19909;-78
2023/12/18 03:15:21;;;;;;;;;;;-1.00;99.90;;;;;;4994500;28;19989;-77
2023/12/18 03:17:46;;;;;;;;;;;-1.00;99.90;;;;;;4994020;28;19933;-78
2023/12/18 03:20:12;;;;;;;;;;;-1.00;99.90;;;;;;4999137;28;19916;-79
2023/12/18 03:22:37;;;;;;;;;;;-1.00;99.90;;;;;;5013664;28;19905;-78
2023/12/18 03:25:03;;;;;;;;;;;-1.00;99.90;;;;;;4996484;28;19906;-78
2023/12/18 03:27:29;;;;;;;;;;;-1.00;99.90;;;;;;4999197;28;20034;-78
2023/12/18 03:29:54;;;;;;;;;;;-1.00;99.90;;;;;;4998653;28;19913;-79
2023/12/18 03:32:20;;;;;;;;;;;-1.00;99.90;;;;;;4998462;28;20342;-79
2023/12/18 03:34:46;;;;;;;;;;;-0.90;99.90;;;;;;5001904;28;20374;-79
2023/12/18 03:37:11;;;;;;;;;;;-0.90;99.90;;;;;;5002899;28;19905;-79
2023/12/18 03:39:36;;;;;;;;;;;-0.80;99.90;;;;;;4999665;28;19905;-79
2023/12/18 03:42:02;;;;;;;;;;;-0.80;99.90;;;;;;5000379;28;20355;-79
2023/12/18 03:44:28;;;;;;;;;;;-0.80;99.90;;;;;;4999403;28;19910;-79
2023/12/18 03:46:53;;;;;;;;;;;-0.70;99.90;;;;;;5000442;28;19917;-79
2023/12/18 03:49:19;;;;;;;;;;;-0.70;99.90;;;;;;4999064;28;19917;-79
2023/12/18 03:51:44;;;;;;;;;;;-0.70;99.90;;;;;;5000697;28;19916;-79
2023/12/18 03:54:10;;;;;;;;;;;-0.80;99.90;;;;;;4998766;28;20275;-79
2023/12/18 03:56:35;;;;;;;;;;;-0.80;99.90;;;;;;5001555;28;19905;-79
2023/12/18 03:59:01;;;;;;;;;;;-0.80;99.90;;;;;;4998855;28;19956;-77
2023/12/18 04:01:36;;;;;;;;;;;-0.80;99.90;;;;;;4999205;28;19906;-79
2023/12/18 04:04:02;;;;;;;;;;;-0.80;99.90;;;;;;4997641;28;19985;-78
2023/12/18 04:06:28;;;;;;;;;;;-0.70;99.90;;;;;;4999415;28;19917;-79
2023/12/18 04:08:53;;;;;;;;;;;-0.70;99.90;;;;;;4998541;28;19940;-79
2023/12/18 04:11:21;;;;;;;;;;;-0.80;99.90;;;;;;5014475;28;20275;-79
2023/12/18 04:13:47;;;;;;;;;;;-0.60;99.90;;;;;;4998270;28;19906;-79
2023/12/18 04:16:12;;;;;;;;;;;-0.80;99.90;;;;;;4995235;28;19909;-78
2023/12/18 04:18:38;;;;;;;;;;;-0.80;99.90;;;;;;4996198;28;19992;-79
2023/12/18 04:21:04;;;;;;;;;;;-0.80;99.90;;;;;;4997800;28;20016;-78
2023/12/18 04:23:29;;;;;;;;;;;-0.70;99.90;;;;;;5005760;28;19905;-79
2023/12/18 04:25:55;;;;;;;;;;;-0.80;99.90;;;;;;4999711;28;19960;-78
2023/12/18 04:28:20;;;;;;;;;;;-0.70;99.90;;;;;;4997255;28;19956;-78
2023/12/18 04:30:46;;;;;;;;;;;-0.70;99.90;;;;;;4994346;28;20298;-78
2023/12/18 04:33:11;;;;;;;;;;;-0.60;99.90;;;;;;4992805;28;20401;-78
2023/12/18 04:35:37;;;;;;;;;;;-0.60;99.90;;;;;;4993438;28;19906;-79
2023/12/18 04:38:02;;;;;;;;;;;-0.60;99.90;;;;;;4993762;28;19906;-78
2023/12/18 04:40:28;;;;;;;;;;;-0.60;99.90;;;;;;4993151;28;19910;-78
2023/12/18 04:42:54;;;;;;;;;;;-0.70;99.90;;;;;;4995025;28;19906;-78
2023/12/18 04:45:20;;;;;;;;;;;-0.70;99.90;;;;;;4993053;28;19905;-77
2023/12/18 04:47:48;;;;;;;;;;;-0.60;99.90;;;;;;4995501;28;19909;-77
2023/12/18 04:50:14;;;;;;;;;;;-0.60;99.90;;;;;;4994541;28;20420;-79
2023/12/18 04:52:40;;;;;;;;;;;-0.50;99.90;;;;;;4994055;28;19973;-78
2023/12/18 04:55:06;;;;;;;;;;;-0.50;99.90;;;;;;4992347;28;20048;-78
2023/12/18 04:57:31;;;;;;;;;;;-0.50;99.90;;;;;;4992974;28;19965;-79
2023/12/18 04:59:57;;;;;;;;;;;-0.50;99.90;;;;;;4995884;28;20424;-79
2023/12/18 05:02:23;;;;;;;;;;;-0.50;99.90;;;;;;4996161;28;20398;-77
2023/12/18 05:04:48;;;;;;;;;;;-0.50;99.90;;;;;;4993703;28;19945;-77
2023/12/18 05:07:14;;;;;;;;;;;-0.60;99.90;;;;;;4994798;28;19909;-78
2023/12/18 05:09:39;;;;;;;;;;;-0.60;99.90;;;;;;4993443;28;19910;-79
2023/12/18 05:12:05;;;;;;;;;;;-0.50;99.90;;;;;;4995913;28;20361;-78
2023/12/18 05:14:32;;;;;;;;;;;-0.50;99.90;;;;;;5000161;28;19925;-79
2023/12/18 05:16:57;;;;;;;;;;;-0.50;99.90;;;;;;4999462;28;19906;-78
2023/12/18 05:19:23;;;;;;;;;;;-0.60;99.90;;;;;;4993778;28;19920;-78
2023/12/18 05:21:49;;;;;;;;;;;-0.60;99.90;;;;;;4997407;28;19928;-78
2023/12/18 05:24:14;;;;;;;;;;;-0.60;99.90;;;;;;5001594;28;19906;-79
2023/12/18 05:26:39;;;;;;;;;;;-0.50;99.90;;;;;;5001522;28;19948;-80
2023/12/18 05:29:05;;;;;;;;;;;-0.50;99.90;;;;;;5002238;28;19940;-78
2023/12/18 05:31:30;;;;;;;;;;;-0.40;99.90;;;;;;4997663;28;19914;-77
2023/12/18 05:33:57;;;;;;;;;;;-0.50;99.90;;;;;;4996699;28;19916;-78
2023/12/18 05:36:22;;;;;;;;;;;-0.60;99.90;;;;;;4999460;28;20409;-79
2023/12/18 05:38:48;;;;;;;;;;;-0.50;99.90;;;;;;4995691;28;19916;-78
2023/12/18 05:41:14;;;;;;;;;;;-0.60;99.90;;;;;;5010421;28;20000;-76
2023/12/18 05:43:39;;;;;;;;;;;-0.60;99.90;;;;;;4997933;28;19909;-78
2023/12/18 05:46:05;;;;;;;;;;;-0.60;99.90;;;;;;5000581;28;20441;-78
2023/12/18 05:48:30;;;;;;;;;;;-0.60;99.90;;;;;;5003025;28;19999;-79
2023/12/18 05:50:56;;;;;;;;;;;-0.60;99.90;;;;;;4999183;28;19906;-77
2023/12/18 05:53:21;;;;;;;;;;;-0.60;99.90;;;;;;4999235;28;19909;-78
2023/12/18 05:55:47;;;;;;;;;;;-0.60;99.90;;;;;;4998362;28;19910;-79
2023/12/18 05:58:12;;;;;;;;;;;-0.60;99.90;;;;;;5001116;28;19937;-79
2023/12/18 06:00:38;;;;;;;;;;;-0.60;99.90;;;;;;4999570;28;20004;-79
2023/12/18 06:03:03;;;;;;;;;;;-0.50;99.90;;;;;;4996984;28;19941;-79
2023/12/18 06:05:29;;;;;;;;;;;-0.50;99.90;;;;;;5001579;28;19928;-80
2023/12/18 06:07:54;;;;;;;;;;;-0.50;99.90;;;;;;5038117;28;19906;-80
2023/12/18 06:10:20;;;;;;;;;;;-0.60;99.90;;;;;;5003381;28;19914;-78
2023/12/18 06:12:45;;;;;;;;;;;-0.60;99.90;;;;;;4994536;28;19976;-77
2023/12/18 06:15:11;;;;;;;;;;;-0.50;99.90;;;;;;4995175;28;20407;-77
2023/12/18 06:17:36;;;;;;;;;;;-0.60;99.90;;;;;;4994352;28;19912;-78
2023/12/18 06:20:05;;;;;;;;;;;-0.50;99.90;;;;;;4998207;28;19916;-78
2023/12/18 06:22:31;;;;;;;;;;;-0.50;99.90;;;;;;4998399;28;19916;-78
2023/12/18 06:24:56;;;;;;;;;;;-0.70;99.90;;;;;;4997296;28;19910;-79
2023/12/18 06:27:22;;;;;;;;;;;-0.80;99.90;;;;;;4997477;28;19932;-78
2023/12/18 06:29:47;;;;;;;;;;;-0.70;99.90;;;;;;4998001;28;19910;-78
2023/12/18 06:32:14;;;;;;;;;;;-0.70;99.90;;;;;;4997169;28;19909;-78
2023/12/18 06:34:40;;;;;;;;;;;-0.60;99.90;;;;;;4998047;28;20413;-79
2023/12/18 06:37:06;;;;;;;;;;;-0.60;99.90;;;;;;5001836;28;19917;-78
2023/12/18 06:39:32;;;;;;;;;;;-0.60;99.90;;;;;;4996836;28;19906;-78
2023/12/18 06:41:57;;;;;;;;;;;-0.50;99.90;;;;;;4995391;28;20302;-78
2023/12/18 06:44:23;;;;;;;;;;;-0.50;99.90;;;;;;4995959;28;19996;-77
2023/12/18 06:46:48;;;;;;;;;;;-0.60;99.90;;;;;;4996042;28;19933;-79
2023/12/18 06:49:14;;;;;;;;;;;-0.70;99.90;;;;;;4996092;28;19984;-79
2023/12/18 06:51:39;;;;;;;;;;;-0.60;99.90;;;;;;4995630;28;19964;-78
2023/12/18 06:54:05;;;;;;;;;;;-0.60;99.90;;;;;;4996148;28;19965;-79
2023/12/18 06:56:32;;;;;;;;;;;-0.60;99.90;;;;;;4994962;28;19909;-78
2023/12/18 06:58:57;;;;;;;;;;;-0.60;99.90;;;;;;4995703;28;19913;-78
2023/12/18 07:01:23;;;;;;;;;;;-0.50;99.90;;;;;;4995676;28;19906;-77
2023/12/18 07:03:49;;;;;;;;;;;-0.50;99.90;;;;;;4995404;28;19910;-77
2023/12/18 07:06:16;;;;;;;;;;;-0.40;99.90;;;;;;4995424;28;19961;-77
2023/12/18 07:08:42;;;;;;;;;;;-0.40;99.90;;;;;;4996098;28;19917;-78
2023/12/18 07:11:07;;;;;;;;;;;-0.40;99.90;;;;;;4996117;28;19913;-78
2023/12/18 07:13:33;;;;;;;;;;;-0.40;99.90;;;;;;4994046;28;20006;-76
2023/12/18 07:15:59;;;;;;;;;;;-0.40;99.90;;;;;;4994086;28;20405;-78
2023/12/18 07:18:24;;;;;;;;;;;-0.40;99.90;;;;;;4994334;28;20012;-78
2023/12/18 07:20:50;;;;;;;;;;;-0.30;99.90;;;;;;4996265;28;19956;-78
2023/12/18 07:23:15;;;;;;;;;;;-0.40;99.90;;;;;;4994866;28;19910;-78
2023/12/18 07:25:41;;;;;;;;;;;-0.40;99.90;;;;;;4996145;28;19913;-77
2023/12/18 07:28:09;;;;;;;;;;;-0.40;99.90;;;;;;4995075;28;19917;-77
2023/12/18 07:30:35;;;;;;;;;;;-0.40;99.90;;;;;;4995476;28;20503;-77
2023/12/18 07:33:01;;;;;;;;;;;-0.40;99.90;;;;;;4995330;28;20045;-78
2023/12/18 07:35:26;;;;;;;;;;;-0.40;99.90;;;;;;4994265;28;19949;-80
2023/12/18 07:37:52;;;;;;;;;;;-0.40;99.90;;;;;;4996020;28;19921;-79
2023/12/18 07:40:17;;;;;;;;;;;-0.30;99.90;;;;;;4996815;28;20056;-78
2023/12/18 07:42:43;;;;;;;;;;;-0.30;99.90;;;;;;4995529;28;20000;-78
2023/12/18 07:45:09;;;;;;;;;;;-0.20;99.90;;;;;;4996036;28;19910;-79
2023/12/18 07:47:37;;;;;;;;;;;-0.20;99.90;;;;;;4997375;28;19909;-79
2023/12/18 07:50:04;;;;;;;;;;;-0.10;99.90;;;;;;4997554;28;19909;-78
2023/12/18 07:52:29;;;;;;;;;;;0.00;99.90;;;;;;4995815;28;19917;-79
2023/12/18 07:54:55;;;;;;;;;;;0.00;99.90;;;;;;4997436;28;19906;-78
2023/12/18 07:57:21;;;;;;;;;;;-0.10;99.90;;;;;;4996744;28;19910;-78
2023/12/18 07:59:46;;;;;;;;;;;-0.20;99.90;;;;;;4996645;28;19917;-78
2023/12/18 08:02:12;;;;;;;;;;;-0.20;99.90;;;;;;4996227;28;19909;-79
2023/12/18 08:04:38;;;;;;;;;;;-0.30;99.90;;;;;;4996731;28;19913;-78
2023/12/18 08:07:04;;;;;;;;;;;-0.30;99.90;;;;;;4995967;28;19906;-79
2023/12/18 08:09:30;;;;;;;;;;;-0.30;99.90;;;;;;4994907;28;20382;-79
2023/12/18 08:11:56;;;;;;;;;;;-0.30;99.90;;;;;;4996765;28;19909;-79
2023/12/18 08:14:21;;;;;;;;;;;-0.10;99.90;;;;;;4996953;28;20378;-78
2023/12/18 08:16:47;;;;;;;;;;;-0.10;99.90;;;;;;4997244;28;19916;-79
2023/12/18 08:19:12;;;;;;;;;;;0.00;99.90;;;;;;4995437;28;19935;-79
2023/12/18 08:21:38;;;;;;;;;;;0.10;99.90;;;;;;4996961;28;19998;-79
2023/12/18 08:24:03;;;;;;;;;;;0.10;99.90;;;;;;4995790;28;20005;-79
2023/12/18 08:26:29;;;;;;;;;;;0.20;99.90;;;;;;4997296;28;20012;-80
2023/12/18 08:28:56;;;;;;;;;;;0.20;99.90;;;;;;4997226;28;19918;-79
2023/12/18 08:31:22;;;;;;;;;;;0.10;99.90;;;;;;4995713;28;19917;-78
2023/12/18 08:33:47;;;;;;;;;;;0.20;99.90;;;;;;4997487;28;19913;-78
2023/12/18 08:36:12;;;;;;;;;;;0.10;99.90;;;;;;4995083;28;19906;-78
2023/12/18 08:38:39;;;;;;;;;;;0.10;99.90;;;;;;4995225;28;19905;-78
2023/12/18 08:41:04;;;;;;;;;;;0.10;99.90;;;;;;4995594;28;19964;-79
2023/12/18 08:43:30;;;;;;;;;;;0.10;99.90;;;;;;4995356;28;19909;-79
2023/12/18 08:45:55;;;;;;;;;;;0.00;99.90;;;;;;4999970;28;19960;-79
2023/12/18 08:48:21;;;;;;;;;;;0.20;99.90;;;;;;5002687;28;19972;-78
2023/12/18 08:50:46;;;;;;;;;;;0.20;99.90;;;;;;4998823;28;19906;-78
2023/12/18 08:53:12;;;;;;;;;;;0.30;99.90;;;;;;4999034;28;19952;-79
2023/12/18 08:55:39;;;;;;;;;;;0.50;99.90;;;;;;4999626;28;20446;-79
2023/12/18 08:58:05;;;;;;;;;;;0.50;99.90;;;;;;4999822;28;19912;-78
2023/12/18 09:00:31;;;;;;;;;;;0.60;99.90;;;;;;4999343;28;19928;-78
2023/12/18 09:02:58;;;;;;;;;;;0.70;99.90;;;;;;4997775;28;20342;-78
2023/12/18 09:05:24;;;;;;;;;;;0.70;99.90;;;;;;4997719;28;19940;-78
2023/12/18 09:07:49;;;;;;;;;;;0.80;99.90;;;;;;4999100;28;19914;-78
2023/12/18 09:10:17;;;;;;;;;;;0.80;99.90;;;;;;4998928;28;19937;-79
2023/12/18 09:12:44;;;;;;;;;;;0.80;99.90;;;;;;4998017;28;19916;-76
2023/12/18 09:15:09;;;;;;;;;;;0.80;99.90;;;;;;5014543;28;19960;-79
2023/12/18 09:17:35;;;;;;;;;;;0.90;99.90;;;;;;4998412;28;19906;-76
2023/12/18 09:20:01;;;;;;;;;;;0.90;99.90;;;;;;4999277;28;19941;-77
2023/12/18 09:22:26;;;;;;;;;;;0.90;99.90;;;;;;4999164;28;19941;-78
2023/12/18 09:24:52;;;;;;;;;;;1.00;99.90;;;;;;4999865;28;19906;-79
2023/12/18 09:27:17;;;;;;;;;;;1.00;99.90;;;;;;4997533;28;19940;-77
2023/12/18 09:29:42;;;;;;;;;;;0.70;99.90;;;;;;4996987;28;19918;-77
2023/12/18 09:32:08;;;;;;;;;;;0.70;99.90;;;;;;4997357;28;19992;-79
2023/12/18 09:34:34;;;;;;;;;;;0.80;99.90;;;;;;4998344;28;19910;-78
2023/12/18 09:36:59;;;;;;;;;;;0.90;99.90;;;;;;4997659;28;19910;-78
2023/12/18 09:39:25;;;;;;;;;;;0.90;99.90;;;;;;4997845;28;19993;-78
2023/12/18 09:41:50;;;;;;;;;;;0.90;99.90;;;;;;4999193;28;19960;-78
2023/12/18 09:44:16;;;;;;;;;;;0.90;99.90;;;;;;4997205;28;20557;-78
2023/12/18 09:46:41;;;;;;;;;;;0.80;99.90;;;;;;4996759;28;19910;-78
2023/12/18 09:49:07;;;;;;;;;;;0.80;99.90;;;;;;4998519;28;19918;-78
2023/12/18 09:51:35;;;;;;;;;;;0.60;99.90;;;;;;4997383;28;20366;-79
2023/12/18 09:54:01;;;;;;;;;;;0.70;99.90;;;;;;4998502;28;19905;-78
2023/12/18 09:56:27;;;;;;;;;;;0.40;99.90;;;;;;4998705;28;20295;-78
2023/12/18 09:58:54;;;;;;;;;;;0.30;99.90;;;;;;4998260;28;19916;-78
2023/12/18 10:01:20;;;;;;;;;;;0.40;99.90;;;;;;4997470;28;19963;-77
2023/12/18 10:03:45;;;;;;;;;;;0.50;99.90;;;;;;4997596;28;19914;-79
2023/12/18 10:06:11;;;;;;;;;;;0.50;99.90;;;;;;5012769;28;20416;-78
2023/12/18 10:08:37;;;;;;;;;;;0.60;99.90;;;;;;4996697;28;19909;-78
2023/12/18 10:11:03;;;;;;;;;;;0.60;99.90;;;;;;4999145;28;19910;-78
2023/12/18 10:13:28;;;;;;;;;;;0.70;99.90;;;;;;4998247;28;20462;-79
2023/12/18 10:15:54;;;;;;;;;;;0.90;99.90;;;;;;4996984;28;20021;-78
2023/12/18 10:18:23;;;;;;;;;;;1.00;99.90;;;;;;4997139;28;19960;-78
2023/12/18 10:20:49;;;;;;;;;;;1.10;99.90;;;;;;4998098;28;19906;-76
2023/12/18 10:23:14;;;;;;;;;;;1.20;99.90;;;;;;4996655;28;19917;-76
2023/12/18 10:25:40;;;;;;;;;;;1.30;99.90;;;;;;4998860;28;19963;-78
2023/12/18 10:28:06;;;;;;;;;;;1.30;99.90;;;;;;4998721;28;19956;-75
2023/12/18 10:30:34;;;;;;;;;;;1.30;99.90;;;;;;4996181;28;19918;-76
2023/12/18 10:33:05;;;;;;;;;;;1.30;99.90;;;;;;4998355;28;19910;-76
2023/12/18 10:35:31;;;;;;;;;;;1.40;99.90;;;;;;4996618;28;19909;-77
2023/12/18 10:37:57;;;;;;;;;;;1.40;99.90;;;;;;4996721;28;20333;-78
2023/12/18 10:40:26;;;;;;;;;;;1.30;99.90;;;;;;4997863;28;19913;-77
2023/12/18 10:42:59;;;;;;;;;;;1.50;99.90;;;;;;4998062;28;19916;-77
2023/12/18 10:45:26;;;;;;;;;;;1.40;99.90;;;;;;4996531;28;20318;-77
2023/12/18 10:47:53;;;;;;;;;;;1.50;99.90;;;;;;4998265;28;19933;-76
2023/12/18 10:50:19;;;;;;;;;;;1.50;99.90;;;;;;4998056;28;19917;-76
2023/12/18 10:52:46;;;;;;;;;;;1.50;99.90;;;;;;4998730;28;20436;-76
2023/12/18 10:55:12;;;;;;;;;;;1.40;99.90;;;;;;4998903;28;19913;-77
2023/12/18 10:57:42;;;;;;;;;;;1.50;99.90;;;;;;4998354;28;19945;-76
2023/12/18 11:00:08;;;;;;;;;;;1.40;99.90;;;;;;4997124;28;19905;-77
2023/12/18 11:02:34;;;;;;;;;;;1.40;99.90;;;;;;4995768;28;19909;-76
2023/12/18 11:05:00;;;;;;;;;;;1.20;99.90;;;;;;4996372;28;19944;-77
2023/12/18 11:07:27;;;;;;;;;;;1.20;99.90;;;;;;4994785;28;19914;-76
2023/12/18 11:09:53;;;;;;;;;;;1.40;99.90;;;;;;4995685;28;19961;-76
2023/12/18 11:12:20;;;;;;;;;;;1.40;99.90;;;;;;4994591;28;19917;-75
2023/12/18 11:15:08;;;;;;;;;;;1.40;99.90;;;;;;4994889;28;19910;-77
2023/12/18 11:17:55;;;;;;;;;;;1.40;99.90;;;;;;4994474;28;20001;-76
2023/12/18 11:20:40;;;;;;;;;;;1.50;99.90;;;;;;4996354;28;19932;-76
2023/12/18 11:23:06;;;;;;;;;;;1.40;99.90;;;;;;4995043;28;19906;-76
2023/12/18 11:25:35;;;;;;;;;;;1.50;99.90;;;;;;4995454;28;20324;-76
2023/12/18 11:28:02;;;;;;;;;;;1.40;99.90;;;;;;4995243;28;19917;-77
2023/12/18 11:30:28;;;;;;;;;;;1.30;99.90;;;;;;4993960;28;20306;-77
2023/12/18 11:32:55;;;;;;;;;;;1.30;99.90;;;;;;4995278;28;19906;-76
2023/12/18 11:35:26;;;;;;;;;;;1.30;99.90;;;;;;4994248;28;19969;-76
2023/12/18 11:37:52;;;;;;;;;;;1.30;99.90;;;;;;4994107;28;20000;-76
2023/12/18 11:40:31;;;;;;;;;;;1.30;99.90;;;;;;4994240;28;20381;-76
2023/12/18 11:42:56;;;;;;;;;;;1.40;99.90;;;;;;4995503;28;20389;-76
2023/12/18 11:45:23;;;;;;;;;;;1.40;99.90;;;;;;4994768;28;19913;-76
2023/12/18 11:47:52;;;;;;;;;;;1.40;99.90;;;;;;4994533;28;20379;-76
2023/12/18 11:50:24;;;;;;;;;;;1.40;99.90;;;;;;4995920;28;20001;-76
2023/12/18 11:52:50;;;;;;;;;;;1.40;99.90;;;;;;4995248;28;20182;-76
2023/12/18 11:55:34;;;;;;;;;;;1.50;99.90;;;;;;4996432;28;19999;-76
2023/12/18 11:58:00;;;;;;;;;;;1.50;99.90;;;;;;4994247;28;19917;-76
2023/12/18 12:00:27;;;;;;;;;;;1.50;99.90;;;;;;4994274;28;20283;-76
2023/12/18 12:02:53;;;;;;;;;;;1.50;99.90;;;;;;4996008;28;20309;-76
2023/12/18 12:05:19;;;;;;;;;;;1.60;99.90;;;;;;4993989;28;19940;-75
2023/12/18 12:07:51;;;;;;;;;;;1.60;99.90;;;;;;4994777;28;20444;-76
2023/12/18 12:10:17;;;;;;;;;;;1.70;99.90;;;;;;4994854;28;19913;-76
2023/12/18 12:12:43;;;;;;;;;;;1.70;99.90;;;;;;4995934;28;20595;-76
2023/12/18 12:15:10;;;;;;;;;;;1.70;99.90;;;;;;4992426;28;20286;-76
2023/12/18 12:17:35;;;;;;;;;;;1.70;99.90;;;;;;4994295;28;20394;-76
2023/12/18 12:20:01;;;;;;;;;;;1.70;99.90;;;;;;4995768;28;19916;-76
2023/12/18 12:22:29;;;;;;;;;;;1.70;99.90;;;;;;4994185;28;20008;-75
2023/12/18 12:24:54;;;;;;;;;;;1.60;99.90;;;;;;4992185;28;19953;-75
2023/12/18 12:27:20;;;;;;;;;;;1.60;99.90;;;;;;4992038;28;19910;-74
2023/12/18 12:29:45;;;;;;;;;;;1.50;99.90;;;;;;4991998;28;19960;-76
2023/12/18 12:32:11;;;;;;;;;;;1.50;99.90;;;;;;4995687;28;19914;-75
2023/12/18 12:34:36;;;;;;;;;;;1.40;99.90;;;;;;4993726;28;20378;-75
2023/12/18 12:37:02;;;;;;;;;;;1.40;99.90;;;;;;4994661;28;19969;-75
2023/12/18 12:39:28;;;;;;;;;;;1.50;99.90;;;;;;4991888;28;19994;-75
2023/12/18 12:41:54;;;;;;;;;;;1.50;99.90;;;;;;4989773;28;19906;-77
2023/12/18 12:44:19;;;;;;;;;;;1.50;99.90;;;;;;4992301;28;19905;-74
2023/12/18 12:46:45;;;;;;;;;;;1.50;99.90;;;;;;4994341;28;19905;-75
2023/12/18 12:49:11;;;;;;;;;;;1.50;99.90;;;;;;4993812;28;19917;-75
2023/12/18 12:51:40;;;;;;;;;;;1.50;99.90;;;;;;4995321;28;19928;-76
2023/12/18 12:54:06;;;;;;;;;;;1.50;99.90;;;;;;4993874;28;20003;-76
2023/12/18 12:56:32;;;;;;;;;;;1.50;99.90;;;;;;4994801;28;19914;-77
2023/12/18 12:58:57;;;;;;;;;;;1.60;99.90;;;;;;4994547;28;19925;-76
2023/12/18 13:01:23;;;;;;;;;;;1.50;99.90;;;;;;4995922;28;19910;-76
2023/12/18 13:03:50;;;;;;;;;;;1.50;99.90;;;;;;4995994;28;20444;-77
2023/12/18 13:06:16;;;;;;;;;;;1.50;99.90;;;;;;4996526;28;19933;-77
2023/12/18 13:08:42;;;;;;;;;;;1.50;99.90;;;;;;4995037;28;19922;-77
2023/12/18 13:11:08;;;;;;;;;;;1.50;99.90;;;;;;4995206;28;20537;-77
2023/12/18 13:13:34;;;;;;;;;;;1.50;99.90;;;;;;4992979;28;19906;-77
2023/12/18 13:15:59;;;;;;;;;;;1.50;99.90;;;;;;4991892;28;19916;-76
2023/12/18 13:18:25;;;;;;;;;;;1.50;99.90;;;;;;4992846;28;19925;-76
2023/12/18 13:20:51;;;;;;;;;;;1.40;99.90;;;;;;4991308;28;19980;-77
2023/12/18 13:23:16;;;;;;;;;;;1.40;99.90;;;;;;4990602;28;19913;-76
2023/12/18 13:25:42;;;;;;;;;;;1.40;99.90;;;;;;4993266;28;19914;-76
2023/12/18 13:28:07;;;;;;;;;;;1.40;99.90;;;;;;4993727;28;19909;-77
2023/12/18 13:30:33;;;;;;;;;;;1.30;99.90;;;;;;4994600;28;20001;-77
2023/12/18 13:32:59;;;;;;;;;;;1.30;99.90;;;;;;4993512;28;19905;-77
2023/12/18 13:35:24;;;;;;;;;;;1.40;99.90;;;;;;4997428;28;19924;-77
2023/12/18 13:37:50;;;;;;;;;;;1.40;99.90;;;;;;4997716;28;19921;-77
2023/12/18 13:40:15;;;;;;;;;;;1.40;99.90;;;;;;4997609;28;20367;-75
2023/12/18 13:42:41;;;;;;;;;;;1.40;99.90;;;;;;4995453;28;19930;-75
2023/12/18 13:45:07;;;;;;;;;;;1.40;99.90;;;;;;4996083;28;19916;-76
2023/12/18 13:47:33;;;;;;;;;;;1.30;99.90;;;;;;4997498;28;19909;-76
2023/12/18 13:49:59;;;;;;;;;;;1.30;99.90;;;;;;4995955;28;20387;-76
2023/12/18 13:52:27;;;;;;;;;;;1.40;99.90;;;;;;4995431;28;20397;-77
2023/12/18 13:54:53;;;;;;;;;;;1.40;99.90;;;;;;4998393;28;19952;-76
2023/12/18 13:57:18;;;;;;;;;;;1.30;99.90;;;;;;4996333;28;19909;-77
2023/12/18 13:59:44;;;;;;;;;;;1.20;99.90;;;;;;4995629;28;20271;-76
2023/12/18 14:02:09;;;;;;;;;;;1.30;99.90;;;;;;4995982;28;19953;-78
2023/12/18 14:04:35;;;;;;;;;;;1.20;99.90;;;;;;4998110;28;20310;-77
2023/12/18 14:07:01;;;;;;;;;;;1.10;99.90;;;;;;4997667;28;19909;-77
2023/12/18 14:09:26;;;;;;;;;;;1.00;99.90;;;;;;4996200;28;20005;-76
2023/12/18 14:11:52;;;;;;;;;;;0.90;99.90;;;;;;4997137;28;19975;-77
2023/12/18 14:14:18;;;;;;;;;;;0.90;99.90;;;;;;4997522;28;20327;-77
2023/12/18 14:16:44;;;;;;;;;;;1.00;99.90;;;;;;4997327;28;19906;-76